Time;durP1;ratioP1;P1;durP2;ratioP2;P2;SDS_P1;SDS_P2;PMS_P1;PMS_P2;Temp;Humidity;BMP_temperature;BMP_pressure;BME280_temperature;BME280_humidity;BME280_pressure;Samples;Min_cycle;Max_cycle;Signal;HPM_P1;HPM_P2
2022/11/29 00:02:07;;;;;;;44.53;23.97;;;5.60;99.90;;;;;;5070748;28;20452;-66
2022/11/29 00:04:34;;;;;;;42.73;23.87;;;5.60;99.90;;;;;;5071162;28;20528;-65
2022/11/29 00:07:01;;;;;;;55.00;25.27;;;5.60;99.90;;;;;;5071622;28;20452;-66
2022/11/29 00:09:27;;;;;;;52.57;27.20;;;5.60;99.90;;;;;;5071121;28;20493;-66
2022/11/29 00:12:12;;;;;;;50.13;24.73;;;5.70;99.90;;;;;;5071262;28;20455;-66
2022/11/29 00:14:41;;;;;;;46.63;24.07;;;5.60;99.90;;;;;;5071235;28;20472;-66
2022/11/29 00:17:07;;;;;;;47.37;24.77;;;5.60;99.90;;;;;;5085340;28;20571;-66
2022/11/29 00:19:35;;;;;;;46.00;24.10;;;5.60;99.90;;;;;;5091490;28;20866;-66
2022/11/29 00:22:03;;;;;;;48.17;24.93;;;5.60;99.90;;;;;;5072806;28;20457;-66
2022/11/29 00:24:31;;;;;;;48.13;23.80;;;5.60;99.90;;;;;;5071165;28;20473;-66
2022/11/29 00:26:58;;;;;;;48.93;25.40;;;5.60;99.90;;;;;;5071276;28;20448;-66
2022/11/29 00:29:25;;;;;;;43.77;23.50;;;5.60;99.90;;;;;;5071042;28;20880;-66
2022/11/29 00:31:53;;;;;;;49.00;26.37;;;5.60;99.90;;;;;;5070991;28;20452;-66
2022/11/29 00:34:19;;;;;;;47.47;24.47;;;5.60;99.90;;;;;;5070914;28;20888;-66
2022/11/29 00:36:46;;;;;;;47.63;25.13;;;5.60;99.90;;;;;;5071026;28;20866;-66
2022/11/29 00:39:13;;;;;;;45.87;24.30;;;5.60;99.90;;;;;;5071182;28;20455;-66
2022/11/29 00:41:39;;;;;;;45.43;24.80;;;5.60;99.90;;;;;;5070917;28;20447;-66
2022/11/29 00:44:06;;;;;;;51.00;25.67;;;5.60;99.90;;;;;;5070786;28;20504;-66
2022/11/29 00:46:33;;;;;;;45.40;25.30;;;5.60;99.90;;;;;;5079114;28;20457;-66
2022/11/29 00:49:01;;;;;;;47.53;24.57;;;5.60;99.90;;;;;;5079167;28;20455;-66
2022/11/29 00:51:28;;;;;;;45.10;25.47;;;5.60;99.90;;;;;;5071084;28;20859;-66
2022/11/29 00:53:54;;;;;;;46.30;25.30;;;5.60;99.90;;;;;;5070671;28;20465;-66
2022/11/29 00:56:21;;;;;;;45.80;25.37;;;5.60;99.90;;;;;;5070638;28;20466;-66
2022/11/29 00:58:48;;;;;;;54.53;26.70;;;5.60;99.90;;;;;;5071081;28;20453;-66
2022/11/29 01:01:15;;;;;;;46.73;24.90;;;5.60;99.90;;;;;;5070867;28;20448;-66
2022/11/29 01:03:42;;;;;;;46.87;24.00;;;5.60;99.90;;;;;;5070388;28;20472;-66
2022/11/29 01:06:12;;;;;;;52.43;24.83;;;5.60;99.90;;;;;;5070753;28;20480;-66
2022/11/29 01:08:38;;;;;;;46.10;25.80;;;5.60;99.90;;;;;;5070812;28;20459;-66
2022/11/29 01:11:08;;;;;;;52.83;26.30;;;5.60;99.90;;;;;;5070432;28;20491;-66
2022/11/29 01:13:35;;;;;;;54.00;25.97;;;5.60;99.90;;;;;;5072997;28;20522;-66
2022/11/29 01:16:02;;;;;;;53.33;27.50;;;5.60;99.90;;;;;;5079644;28;20450;-66
2022/11/29 01:18:30;;;;;;;49.50;25.30;;;5.60;99.90;;;;;;5094828;28;20446;-66
2022/11/29 01:20:58;;;;;;;44.43;23.57;;;5.60;99.90;;;;;;5094632;28;20477;-66
2022/11/29 01:23:27;;;;;;;52.70;26.27;;;5.60;99.90;;;;;;5093466;28;20473;-66
2022/11/29 01:25:58;;;;;;;46.00;24.50;;;5.60;99.90;;;;;;5074089;28;20992;-66
2022/11/29 01:28:25;;;;;;;50.77;25.60;;;5.60;99.90;;;;;;5074210;28;20987;-66
2022/11/29 01:30:53;;;;;;;51.23;26.07;;;5.60;99.90;;;;;;5074145;28;20497;-66
2022/11/29 01:33:19;;;;;;;47.70;24.17;;;5.60;99.90;;;;;;5073607;28;20454;-66
2022/11/29 01:35:50;;;;;;;48.57;25.90;;;5.60;99.90;;;;;;5074130;28;20460;-66
2022/11/29 01:38:17;;;;;;;58.37;25.10;;;5.60;99.90;;;;;;5074124;28;20452;-66
2022/11/29 01:40:55;;;;;;;56.87;25.20;;;5.60;99.90;;;;;;5074026;28;20444;-66
2022/11/29 01:43:23;;;;;;;46.37;25.67;;;5.60;99.90;;;;;;5073629;28;20480;-66
2022/11/29 01:45:50;;;;;;;47.70;25.67;;;5.60;99.90;;;;;;5083832;28;20447;-66
2022/11/29 01:48:18;;;;;;;44.57;25.37;;;5.60;99.90;;;;;;5094496;28;20452;-66
2022/11/29 01:50:44;;;;;;;52.80;25.50;;;5.60;99.90;;;;;;5094047;28;21139;-66
2022/11/29 01:53:13;;;;;;;46.73;25.67;;;5.60;99.90;;;;;;5094050;28;20451;-66
2022/11/29 01:55:43;;;;;;;48.80;23.60;;;5.60;99.90;;;;;;5093963;28;20520;-66
2022/11/29 01:58:12;;;;;;;56.17;26.50;;;5.60;99.90;;;;;;5078910;28;20460;-66
2022/11/29 02:00:39;;;;;;;53.57;25.07;;;5.70;99.90;;;;;;5073493;28;20445;-66
2022/11/29 02:03:10;;;;;;;45.50;23.70;;;5.70;99.90;;;;;;5073652;28;20888;-66
2022/11/29 02:05:38;;;;;;;50.23;25.03;;;5.70;99.90;;;;;;5066219;28;20441;-66
2022/11/29 02:08:06;;;;;;;49.70;25.50;;;5.70;99.90;;;;;;5073718;28;20518;-66
2022/11/29 02:10:44;;;;;;;60.63;26.87;;;5.70;99.90;;;;;;5073280;28;20535;-66
2022/11/29 02:13:22;;;;;;;58.27;26.03;;;5.70;99.90;;;;;;5073633;28;20534;-66
2022/11/29 02:15:58;;;;;;;52.80;27.00;;;5.70;99.90;;;;;;5077044;28;20452;-66
2022/11/29 02:18:33;;;;;;;52.43;24.87;;;5.70;99.90;;;;;;5093717;28;20443;-66
2022/11/29 02:21:31;;;;;;;50.90;24.97;;;5.70;99.90;;;;;;5083537;28;20447;-66
2022/11/29 02:24:14;;;;;;;52.27;24.17;;;5.70;99.90;;;;;;5065786;28;20526;-66
2022/11/29 02:27:11;;;;;;;56.77;25.50;;;5.70;99.90;;;;;;5073187;28;20472;-66
2022/11/29 02:29:57;;;;;;;58.17;28.17;;;5.70;99.90;;;;;;5052934;28;20449;-66
2022/11/29 02:33:04;;;;;;;46.57;23.47;;;5.70;99.90;;;;;;5053179;28;20487;-66
2022/11/29 02:35:44;;;;;;;45.10;24.77;;;5.70;99.90;;;;;;5052889;28;20497;-66
2022/11/29 02:38:29;;;;;;;53.87;26.20;;;5.70;99.90;;;;;;5052939;28;20449;-66
2022/11/29 02:41:09;;;;;;;53.27;26.30;;;5.80;99.90;;;;;;5053271;28;20448;-67
2022/11/29 02:44:09;;;;;;;57.10;26.40;;;5.80;99.90;;;;;;5064972;28;20472;-67
2022/11/29 02:46:55;;;;;;;48.80;26.30;;;5.80;99.90;;;;;;5072971;28;20460;-67
2022/11/29 02:49:41;;;;;;;65.37;25.90;;;5.80;99.90;;;;;;5072832;28;20461;-65
2022/11/29 02:52:13;;;;;;;61.27;25.10;;;5.80;99.90;;;;;;5072082;28;20440;-65
2022/11/29 02:54:48;;;;;;;55.27;24.70;;;5.80;99.90;;;;;;5072553;28;20470;-65
2022/11/29 02:57:23;;;;;;;49.13;24.80;;;5.70;99.90;;;;;;5072346;28;20928;-65
2022/11/29 02:59:57;;;;;;;58.20;25.70;;;5.70;99.90;;;;;;5072859;28;20875;-65
2022/11/29 03:02:31;;;;;;;55.40;26.20;;;5.70;99.90;;;;;;5071765;28;20921;-65
2022/11/29 03:05:09;;;;;;;73.10;28.30;;;5.70;99.90;;;;;;5072431;28;20475;-65
2022/11/29 03:07:40;;;;;;;68.07;26.93;;;5.70;99.90;;;;;;5072261;28;20444;-65
2022/11/29 03:10:20;;;;;;;63.50;27.67;;;5.70;99.90;;;;;;5072311;28;20476;-65
2022/11/29 03:12:49;;;;;;;51.37;26.20;;;5.70;99.90;;;;;;5071722;28;20457;-65
2022/11/29 03:15:28;;;;;;;57.80;26.60;;;5.60;99.90;;;;;;5071774;28;20473;-65
2022/11/29 03:18:10;;;;;;;50.00;26.50;;;5.60;99.90;;;;;;5052287;28;20565;-65
2022/11/29 03:20:50;;;;;;;76.53;27.00;;;5.60;99.90;;;;;;5052085;28;20446;-65
2022/11/29 03:23:25;;;;;;;50.70;25.33;;;5.60;99.90;;;;;;5053912;28;20454;-65
2022/11/29 03:25:57;;;;;;;57.73;26.33;;;5.60;99.90;;;;;;5072298;28;20455;-65
2022/11/29 03:28:28;;;;;;;59.93;26.80;;;5.60;99.90;;;;;;5071852;28;20455;-66
2022/11/29 03:31:02;;;;;;;53.73;26.03;;;5.60;99.90;;;;;;5071892;28;20483;-66
2022/11/29 03:33:36;;;;;;;51.37;25.37;;;5.60;99.90;;;;;;5071129;28;20484;-66
2022/11/29 03:36:11;;;;;;;76.27;25.37;;;5.60;99.90;;;;;;5072203;28;20456;-66
2022/11/29 03:38:41;;;;;;;61.53;26.90;;;5.60;99.90;;;;;;5071782;28;20452;-66
2022/11/29 03:41:18;;;;;;;68.67;25.63;;;5.60;99.90;;;;;;5071999;28;20468;-66
2022/11/29 03:43:51;;;;;;;49.40;25.03;;;5.60;99.90;;;;;;5071224;28;20518;-66
2022/11/29 03:46:26;;;;;;;56.80;24.90;;;5.60;99.90;;;;;;5071815;28;20964;-66
2022/11/29 03:48:56;;;;;;;63.40;25.50;;;5.60;99.90;;;;;;5071691;28;20444;-66
2022/11/29 03:51:38;;;;;;;52.23;24.87;;;5.70;99.90;;;;;;5071600;28;20479;-66
2022/11/29 03:54:10;;;;;;;47.07;25.60;;;5.60;99.90;;;;;;5071140;28;20480;-66
2022/11/29 03:56:40;;;;;;;58.57;26.47;;;5.60;99.90;;;;;;5071552;28;20517;-66
2022/11/29 03:59:19;;;;;;;45.83;24.03;;;5.60;99.90;;;;;;5071612;28;20452;-66
2022/11/29 04:02:10;;;;;;;44.70;23.63;;;5.60;99.90;;;;;;5071648;28;20448;-66
2022/11/29 04:05:14;;;;;;;52.30;24.37;;;5.60;99.90;;;;;;5071066;28;20486;-66
2022/11/29 04:07:56;;;;;;;58.50;26.63;;;5.60;99.90;;;;;;5064635;28;20486;-66
2022/11/29 04:10:51;;;;;;;48.93;24.60;;;5.70;99.90;;;;;;5071284;28;20979;-66
2022/11/29 04:13:54;;;;;;;45.80;23.90;;;5.70;99.90;;;;;;5071099;28;20452;-66
2022/11/29 04:16:43;;;;;;;43.23;23.83;;;5.70;99.90;;;;;;5079124;28;20447;-66
2022/11/29 04:19:43;;;;;;;47.73;24.00;;;5.70;99.90;;;;;;5091298;28;20934;-66
2022/11/29 04:22:30;;;;;;;45.23;25.43;;;5.70;99.90;;;;;;5072548;28;20508;-66
2022/11/29 04:25:20;;;;;;;47.07;24.07;;;5.70;99.90;;;;;;5071400;28;20510;-66
2022/11/29 04:28:04;;;;;;;43.50;22.50;;;5.70;99.90;;;;;;5071277;28;20455;-66
2022/11/29 04:30:39;;;;;;;44.13;22.87;;;5.70;99.90;;;;;;5071236;28;20487;-66
2022/11/29 04:33:46;;;;;;;46.00;23.47;;;5.70;99.90;;;;;;5070830;28;20450;-66
2022/11/29 04:36:36;;;;;;;48.30;24.50;;;5.70;99.90;;;;;;5087175;28;20959;-66
2022/11/29 04:39:27;;;;;;;45.10;23.67;;;5.70;99.90;;;;;;5071017;28;20987;-66
2022/11/29 04:42:32;;;;;;;43.77;23.90;;;5.70;99.90;;;;;;5071156;28;20879;-66
2022/11/29 04:45:37;;;;;;;51.93;25.40;;;5.70;99.90;;;;;;5071026;28;20463;-66
2022/11/29 04:48:21;;;;;;;55.47;24.83;;;5.70;99.90;;;;;;5025169;28;20964;-66
2022/11/29 04:50:57;;;;;;;44.27;24.00;;;5.70;99.90;;;;;;5074934;28;21018;-66
2022/11/29 04:53:46;;;;;;;47.43;24.73;;;5.70;99.90;;;;;;5074935;28;20443;-66
2022/11/29 04:56:21;;;;;;;45.10;24.73;;;5.70;99.90;;;;;;5074680;28;20463;-66
2022/11/29 04:58:59;;;;;;;56.87;28.00;;;5.70;99.90;;;;;;5075226;28;20454;-66
2022/11/29 05:01:32;;;;;;;52.90;27.70;;;5.70;99.90;;;;;;5074885;28;20451;-66
2022/11/29 05:04:06;;;;;;;56.93;30.07;;;5.70;99.90;;;;;;5074457;28;20518;-66
2022/11/29 05:06:40;;;;;;;52.53;27.47;;;5.70;99.90;;;;;;5074558;28;20458;-65
2022/11/29 05:09:22;;;;;;;55.33;27.10;;;5.60;99.90;;;;;;5074686;28;20451;-65
2022/11/29 05:11:59;;;;;;;55.43;28.80;;;5.60;99.90;;;;;;5074542;28;20494;-66
2022/11/29 05:14:44;;;;;;;53.13;26.73;;;5.60;99.90;;;;;;5074422;28;20472;-66
2022/11/29 05:17:35;;;;;;;49.70;25.40;;;5.60;99.90;;;;;;5074410;28;20455;-66
2022/11/29 05:20:14;;;;;;;53.63;25.97;;;5.60;99.90;;;;;;5072773;28;20451;-66
2022/11/29 05:22:52;;;;;;;51.53;26.80;;;5.60;99.90;;;;;;5074221;28;20452;-67
2022/11/29 05:25:35;;;;;;;53.43;26.93;;;5.60;99.90;;;;;;5074200;28;20994;-67
2022/11/29 05:28:09;;;;;;;50.90;24.80;;;5.60;99.90;;;;;;5074436;28;20464;-67
2022/11/29 05:30:54;;;;;;;57.57;25.50;;;5.60;99.90;;;;;;5074388;28;20508;-67
2022/11/29 05:33:35;;;;;;;60.37;27.53;;;5.60;99.90;;;;;;5073786;28;20544;-67
2022/11/29 05:36:11;;;;;;;51.77;25.70;;;5.60;99.90;;;;;;5074120;28;20505;-67
2022/11/29 05:38:53;;;;;;;48.13;25.27;;;5.60;99.90;;;;;;5074245;28;20453;-67
2022/11/29 05:41:40;;;;;;;58.30;27.40;;;5.60;99.90;;;;;;5074161;28;20514;-67
2022/11/29 05:44:12;;;;;;;51.70;25.77;;;5.60;99.90;;;;;;5073833;28;20971;-67
2022/11/29 05:46:50;;;;;;;56.30;25.00;;;5.60;99.90;;;;;;5074071;28;20831;-67
2022/11/29 05:49:25;;;;;;;52.57;26.13;;;5.60;99.90;;;;;;5074232;28;20869;-67
2022/11/29 05:51:59;;;;;;;49.73;25.20;;;5.60;99.90;;;;;;5073671;28;21024;-67
2022/11/29 05:54:30;;;;;;;57.10;27.57;;;5.60;99.90;;;;;;5074015;28;20476;-67
2022/11/29 05:57:11;;;;;;;54.90;26.60;;;5.60;99.90;;;;;;5073972;28;20443;-67
2022/11/29 05:59:39;;;;;;;57.47;24.83;;;5.60;99.90;;;;;;5045452;28;20959;-67
2022/11/29 06:02:22;;;;;;;51.27;24.37;;;5.60;99.90;;;;;;5070711;28;20452;-67
2022/11/29 06:05:02;;;;;;;43.83;24.37;;;5.90;99.90;;;;;;5070415;28;20484;-67
2022/11/29 06:07:37;;;;;;;44.77;24.37;;;5.70;99.90;;;;;;5073639;28;20452;-66
2022/11/29 06:10:09;;;;;;;41.37;22.77;;;5.70;99.90;;;;;;5073638;28;20458;-67
2022/11/29 06:12:37;;;;;;;48.13;24.97;;;5.70;99.90;;;;;;5073166;28;20546;-67
2022/11/29 06:15:19;;;;;;;46.80;25.00;;;5.70;99.90;;;;;;5073341;28;20468;-66
2022/11/29 06:18:38;;;;;;;39.07;22.93;;;5.70;99.90;;;;;;5072554;28;20468;-67
2022/11/29 06:21:17;;;;;;;45.53;23.53;;;5.80;99.90;;;;;;5073035;28;20452;-66
2022/11/29 06:23:58;;;;;;;38.37;21.17;;;5.80;99.90;;;;;;5073402;28;20474;-66
2022/11/29 06:26:44;;;;;;;38.90;21.60;;;5.80;99.90;;;;;;5073287;28;20526;-66
2022/11/29 06:29:28;;;;;;;43.27;22.87;;;5.80;99.90;;;;;;5073280;28;20456;-67
2022/11/29 06:32:07;;;;;;;49.57;24.40;;;5.80;99.90;;;;;;5072990;28;20477;-67
2022/11/29 06:34:41;;;;;;;43.67;22.40;;;5.80;99.90;;;;;;5072971;28;20510;-67
2022/11/29 06:37:15;;;;;;;46.47;24.20;;;5.80;99.90;;;;;;5072961;28;20457;-67
2022/11/29 06:39:42;;;;;;;51.50;23.97;;;5.80;99.90;;;;;;5069833;28;20454;-66
2022/11/29 06:42:09;;;;;;;52.07;24.83;;;5.80;99.90;;;;;;5062110;28;20456;-66
2022/11/29 06:44:36;;;;;;;44.37;25.00;;;5.80;99.90;;;;;;5069691;28;21009;-67
2022/11/29 06:47:07;;;;;;;54.30;28.30;;;5.80;99.90;;;;;;5072646;28;20459;-67
2022/11/29 06:49:39;;;;;;;55.67;26.97;;;5.80;99.90;;;;;;5072517;28;20468;-66
2022/11/29 06:52:16;;;;;;;52.83;26.87;;;5.80;99.90;;;;;;5072151;28;20572;-66
2022/11/29 06:54:56;;;;;;;45.67;25.57;;;5.80;99.90;;;;;;5072486;28;20599;-66
2022/11/29 06:57:28;;;;;;;53.13;23.90;;;5.80;99.90;;;;;;5072220;28;20448;-66
2022/11/29 07:00:06;;;;;;;46.40;23.03;;;5.80;99.90;;;;;;5072656;28;20448;-65
2022/11/29 07:03:12;;;;;;;43.00;25.20;;;5.80;99.90;;;;;;5071467;28;20490;-66
2022/11/29 07:05:41;;;;;;;43.87;23.00;;;5.90;99.90;;;;;;5061196;28;20440;-66
2022/11/29 07:08:14;;;;;;;51.10;24.80;;;5.90;99.90;;;;;;5072280;28;20501;-67
2022/11/29 07:10:42;;;;;;;42.43;23.40;;;5.90;99.90;;;;;;5071568;28;20445;-67
2022/11/29 07:13:12;;;;;;;45.23;23.00;;;6.00;99.90;;;;;;5071522;28;20448;-67
2022/11/29 07:15:41;;;;;;;46.73;24.40;;;6.00;99.90;;;;;;5071811;28;20896;-66
2022/11/29 07:18:21;;;;;;;46.77;24.17;;;6.00;99.90;;;;;;5071999;28;20446;-67
2022/11/29 07:20:58;;;;;;;50.97;25.90;;;6.00;99.90;;;;;;5072242;28;20940;-67
2022/11/29 07:23:34;;;;;;;58.40;27.60;;;6.00;99.90;;;;;;5071575;28;20474;-67
2022/11/29 07:26:14;;;;;;;55.63;25.47;;;6.10;99.90;;;;;;5072471;28;20505;-67
2022/11/29 07:28:58;;;;;;;64.83;28.80;;;6.10;99.90;;;;;;5071229;28;20459;-69
2022/11/29 07:31:36;;;;;;;67.47;28.00;;;6.10;99.90;;;;;;5071362;28;20484;-68
2022/11/29 07:34:15;;;;;;;63.20;28.87;;;6.10;99.90;;;;;;5070155;28;20474;-68
2022/11/29 07:36:54;;;;;;;60.20;27.87;;;6.10;99.90;;;;;;5066738;28;20459;-69
2022/11/29 07:39:32;;;;;;;61.10;26.53;;;6.10;99.90;;;;;;5067574;28;20443;-70
2022/11/29 07:42:06;;;;;;;66.17;27.30;;;6.10;99.90;;;;;;5067448;28;20457;-69
2022/11/29 07:44:39;;;;;;;60.13;27.27;;;6.00;99.90;;;;;;5067149;28;20472;-68
2022/11/29 07:47:07;;;;;;;56.63;27.00;;;6.00;99.90;;;;;;5067650;28;20548;-69
2022/11/29 07:49:34;;;;;;;60.17;27.70;;;6.00;99.90;;;;;;5066681;28;20450;-69
2022/11/29 07:52:02;;;;;;;53.57;25.37;;;6.00;99.90;;;;;;5067234;28;20535;-69
2022/11/29 07:54:30;;;;;;;54.83;26.17;;;6.00;99.90;;;;;;5067406;28;20477;-70
2022/11/29 07:56:56;;;;;;;56.00;26.50;;;6.00;99.90;;;;;;5066856;28;20456;-70
2022/11/29 07:59:23;;;;;;;57.63;26.80;;;6.00;99.90;;;;;;5066724;28;20959;-70
2022/11/29 08:01:51;;;;;;;62.40;26.07;;;5.90;99.90;;;;;;5066993;28;20444;-70
2022/11/29 08:04:18;;;;;;;60.27;25.53;;;6.00;99.90;;;;;;5066851;28;20476;-70
2022/11/29 08:06:44;;;;;;;53.70;26.10;;;5.90;99.90;;;;;;5066987;28;20448;-70
2022/11/29 08:09:12;;;;;;;59.20;27.70;;;6.00;99.90;;;;;;5066763;28;20510;-70
2022/11/29 08:11:39;;;;;;;53.43;25.00;;;6.00;99.90;;;;;;5068002;28;20476;-69
2022/11/29 08:14:06;;;;;;;62.20;26.37;;;6.00;99.90;;;;;;5067421;28;20462;-69
2022/11/29 08:16:33;;;;;;;60.60;26.43;;;6.00;99.90;;;;;;5068374;28;20495;-68
2022/11/29 08:19:00;;;;;;;67.10;26.73;;;6.00;99.90;;;;;;5069154;28;20456;-77
2022/11/29 08:21:27;;;;;;;66.40;26.43;;;6.20;99.90;;;;;;5068580;28;20486;-79
2022/11/29 08:23:53;;;;;;;50.33;23.80;;;6.40;99.90;;;;;;5065399;28;20472;-78
2022/11/29 08:26:22;;;;;;;53.03;24.13;;;6.30;99.90;;;;;;5067337;28;20459;-67
2022/11/29 08:28:51;;;;;;;55.83;24.93;;;6.40;99.90;;;;;;5067376;28;20510;-69
2022/11/29 08:31:19;;;;;;;49.97;24.13;;;6.40;99.90;;;;;;5066921;28;20510;-68
2022/11/29 08:33:47;;;;;;;47.63;22.97;;;6.30;99.90;;;;;;5066403;28;20472;-68
2022/11/29 08:36:16;;;;;;;46.73;23.37;;;6.30;99.90;;;;;;5066998;28;20445;-67
2022/11/29 08:38:42;;;;;;;50.10;23.70;;;6.30;99.90;;;;;;5067633;28;20458;-68
2022/11/29 08:41:12;;;;;;;54.87;24.73;;;6.30;99.90;;;;;;5067701;28;21036;-68
2022/11/29 08:43:40;;;;;;;57.20;25.30;;;6.20;99.90;;;;;;5066952;28;20466;-68
2022/11/29 08:46:07;;;;;;;58.93;25.00;;;6.20;99.90;;;;;;5067417;28;20800;-68
2022/11/29 08:48:34;;;;;;;61.67;25.70;;;6.20;99.90;;;;;;5066784;28;20527;-67
2022/11/29 08:51:01;;;;;;;51.20;24.23;;;6.30;99.90;;;;;;5067178;28;20530;-67
2022/11/29 08:53:43;;;;;;;54.90;25.63;;;6.20;99.90;;;;;;5066663;28;20513;-68
2022/11/29 08:56:12;;;;;;;59.70;26.90;;;6.30;99.90;;;;;;5067424;28;20454;-67
2022/11/29 08:58:40;;;;;;;54.83;26.30;;;6.30;99.90;;;;;;5067572;28;20452;-68
2022/11/29 09:01:13;;;;;;;58.33;25.57;;;6.30;99.90;;;;;;5067063;28;20875;-68
2022/11/29 09:06:24;;;;;;;65.00;27.10;;;6.30;99.90;;;;;;5067491;28;20433;-69
2022/11/29 09:08:51;;;;;;;65.80;27.63;;;6.30;99.90;;;;;;5069119;28;20457;-68
2022/11/29 09:11:21;;;;;;;54.90;26.20;;;6.30;99.90;;;;;;5067973;28;20502;-68
2022/11/29 09:13:51;;;;;;;57.40;25.60;;;6.30;99.90;;;;;;5068513;28;20469;-68
2022/11/29 09:16:20;;;;;;;52.23;25.40;;;6.40;99.90;;;;;;5058647;28;20436;-68
2022/11/29 09:18:48;;;;;;;59.47;25.57;;;6.40;99.90;;;;;;5069433;28;20864;-68
2022/11/29 09:21:15;;;;;;;60.27;27.47;;;6.30;99.90;;;;;;5070722;28;20851;-68
2022/11/29 09:23:43;;;;;;;60.43;27.07;;;6.30;99.90;;;;;;5070144;28;20814;-68
2022/11/29 09:26:15;;;;;;;66.13;27.27;;;6.40;99.90;;;;;;5070035;28;20448;-68
2022/11/29 09:28:42;;;;;;;57.23;24.93;;;6.40;99.90;;;;;;5070630;28;20444;-68
2022/11/29 09:31:11;;;;;;;59.70;25.17;;;6.40;99.90;;;;;;5070556;28;20448;-69
2022/11/29 09:33:38;;;;;;;59.97;25.60;;;6.40;99.90;;;;;;5070810;28;20994;-68
2022/11/29 09:36:07;;;;;;;60.60;25.03;;;6.40;99.90;;;;;;5073899;28;20957;-69
2022/11/29 09:38:34;;;;;;;72.90;25.83;;;6.40;99.90;;;;;;5074441;28;20451;-68
2022/11/29 09:41:12;;;;;;;57.10;25.37;;;6.40;99.90;;;;;;5074307;28;20455;-67
2022/11/29 09:43:50;;;;;;;58.87;25.47;;;6.50;99.90;;;;;;5071801;28;20464;-68
2022/11/29 09:46:31;;;;;;;58.67;25.50;;;6.50;99.90;;;;;;5073781;28;20468;-68
2022/11/29 09:49:11;;;;;;;57.70;25.20;;;6.50;99.90;;;;;;5074064;28;20557;-67
2022/11/29 09:51:46;;;;;;;51.30;24.60;;;6.50;99.90;;;;;;5074068;28;20519;-69
2022/11/29 09:54:28;;;;;;;56.13;24.70;;;6.60;99.90;;;;;;5073617;28;20465;-69
2022/11/29 09:56:56;;;;;;;46.30;23.37;;;6.70;99.90;;;;;;5073961;28;20509;-68
2022/11/29 09:59:27;;;;;;;47.00;21.23;;;6.70;99.90;;;;;;5073310;28;20968;-68
2022/11/29 10:02:03;;;;;;;47.13;23.17;;;6.70;99.90;;;;;;5073656;28;20534;-68
2022/11/29 10:04:36;;;;;;;45.10;21.83;;;6.70;99.90;;;;;;5073127;28;20466;-68
2022/11/29 10:07:06;;;;;;;50.03;22.80;;;6.80;99.90;;;;;;5053506;28;20449;-68
2022/11/29 10:09:38;;;;;;;47.80;21.37;;;6.80;99.90;;;;;;5056950;28;20446;-68
2022/11/29 10:12:13;;;;;;;44.30;20.20;;;6.70;99.90;;;;;;5073523;28;20484;-68
2022/11/29 10:14:45;;;;;;;45.63;21.67;;;6.70;99.90;;;;;;5073252;28;20888;-68
2022/11/29 10:17:26;;;;;;;39.00;21.00;;;6.70;99.90;;;;;;5073191;28;20851;-67
2022/11/29 10:19:57;;;;;;;36.40;20.53;;;6.70;99.90;;;;;;5073527;28;20827;-68
2022/11/29 10:22:31;;;;;;;38.70;20.27;;;6.70;99.90;;;;;;5075985;28;20443;-68
2022/11/29 10:25:02;;;;;;;39.87;19.60;;;6.80;99.90;;;;;;5084035;28;20471;-68
2022/11/29 10:27:29;;;;;;;38.20;20.40;;;6.80;99.90;;;;;;5072156;28;20937;-68
2022/11/29 10:29:59;;;;;;;43.90;20.57;;;6.90;99.90;;;;;;5072342;28;20455;-68
2022/11/29 10:32:32;;;;;;;37.80;19.57;;;6.90;99.90;;;;;;5072481;28;20484;-68
2022/11/29 10:35:00;;;;;;;33.37;19.20;;;6.90;99.90;;;;;;5073405;28;20479;-68
2022/11/29 10:37:31;;;;;;;36.77;20.20;;;7.00;99.90;;;;;;5067587;28;20554;-68
2022/11/29 10:40:03;;;;;;;40.53;20.90;;;7.00;99.90;;;;;;5068542;28;20860;-67
2022/11/29 10:42:48;;;;;;;37.90;20.00;;;7.10;99.90;;;;;;5069091;28;20440;-67
2022/11/29 10:45:19;;;;;;;41.70;19.70;;;7.10;99.90;;;;;;5068538;28;20468;-66
2022/11/29 10:47:49;;;;;;;37.97;20.30;;;7.10;99.90;;;;;;5069181;28;20969;-67
2022/11/29 10:50:19;;;;;;;36.73;19.10;;;7.10;99.90;;;;;;5065555;28;20450;-67
2022/11/29 10:52:46;;;;;;;41.17;19.23;;;7.10;99.90;;;;;;5065215;28;20486;-67
2022/11/29 10:55:15;;;;;;;34.50;20.20;;;7.10;99.90;;;;;;5065761;28;20482;-66
2022/11/29 10:58:11;;;;;;;35.63;19.00;;;7.10;99.90;;;;;;5066247;28;20456;-67
2022/11/29 11:00:51;;;;;;;39.67;20.53;;;7.20;99.90;;;;;;5065903;28;20441;-66
2022/11/29 11:03:33;;;;;;;49.53;22.90;;;7.20;99.90;;;;;;5065744;28;20441;-67
2022/11/29 11:06:19;;;;;;;44.80;21.83;;;7.30;99.90;;;;;;5065515;28;20550;-68
2022/11/29 11:08:48;;;;;;;45.03;22.23;;;7.30;99.90;;;;;;5065797;28;20439;-67
2022/11/29 11:11:22;;;;;;;53.30;27.07;;;7.30;99.90;;;;;;5065271;28;20444;-67
2022/11/29 11:13:58;;;;;;;47.10;22.63;;;7.30;99.90;;;;;;5065348;28;20479;-67
2022/11/29 11:16:25;;;;;;;47.83;22.70;;;7.30;99.90;;;;;;5065698;28;20451;-67
2022/11/29 11:18:53;;;;;;;48.20;23.87;;;7.30;99.90;;;;;;5065884;28;20500;-66
2022/11/29 11:21:24;;;;;;;45.80;23.90;;;7.30;99.90;;;;;;5065509;28;20538;-67
2022/11/29 11:23:57;;;;;;;43.70;23.00;;;7.30;99.90;;;;;;5064638;28;20482;-66
2022/11/29 11:26:25;;;;;;;50.17;24.53;;;7.30;99.90;;;;;;5065206;28;20452;-67
2022/11/29 11:28:56;;;;;;;47.10;24.13;;;7.30;99.90;;;;;;5064705;28;20971;-67
2022/11/29 11:31:30;;;;;;;49.20;24.53;;;7.40;99.90;;;;;;5065082;28;20445;-67
2022/11/29 11:34:27;;;;;;;48.33;23.60;;;7.40;99.90;;;;;;5067559;28;20488;-67
2022/11/29 11:37:12;;;;;;;53.23;25.70;;;7.40;99.90;;;;;;5066545;28;20450;-67
2022/11/29 11:39:39;;;;;;;41.73;22.37;;;7.40;99.90;;;;;;5068056;28;20947;-67
2022/11/29 11:44:54;;;;;;;51.73;23.33;;;7.30;99.90;;;;;;5068083;28;20450;-67
2022/11/29 11:47:23;;;;;;;53.17;25.93;;;7.30;99.90;;;;;;5068357;28;20450;-67
2022/11/29 11:49:55;;;;;;;51.53;25.43;;;7.30;99.90;;;;;;5068216;28;20531;-67
2022/11/29 11:52:24;;;;;;;46.00;25.93;;;7.40;99.90;;;;;;5067806;28;20509;-67
2022/11/29 11:54:54;;;;;;;58.23;26.77;;;7.40;99.90;;;;;;5067416;28;20478;-67
2022/11/29 11:57:21;;;;;;;52.53;24.93;;;7.50;99.90;;;;;;5067987;28;20502;-67
2022/11/29 11:59:49;;;;;;;52.80;25.43;;;7.50;99.90;;;;;;5068229;28;20443;-67
2022/11/29 12:02:25;;;;;;;51.40;24.63;;;7.60;99.90;;;;;;5067719;28;20452;-67
2022/11/29 12:04:54;;;;;;;51.50;23.90;;;7.50;99.90;;;;;;5067379;28;20843;-68
2022/11/29 12:07:27;;;;;;;50.77;24.17;;;7.50;99.90;;;;;;5067178;28;21037;-67
2022/11/29 12:09:59;;;;;;;52.43;26.00;;;7.50;99.90;;;;;;5067617;28;20456;-67
2022/11/29 12:12:29;;;;;;;56.13;24.83;;;7.50;99.90;;;;;;5064470;28;20455;-67
2022/11/29 12:15:00;;;;;;;55.57;26.30;;;7.50;99.90;;;;;;5067582;28;21769;-67
2022/11/29 12:17:33;;;;;;;56.97;24.97;;;7.50;99.90;;;;;;5066896;28;21299;-68
2022/11/29 12:20:14;;;;;;;52.53;24.30;;;7.50;99.90;;;;;;5067511;28;20444;-68
2022/11/29 12:22:46;;;;;;;53.70;24.70;;;7.50;99.90;;;;;;5066906;28;20459;-68
2022/11/29 12:25:18;;;;;;;47.60;24.83;;;7.60;99.90;;;;;;5067626;28;20550;-67
2022/11/29 12:27:45;;;;;;;58.10;26.17;;;7.60;99.90;;;;;;5067580;28;20518;-68
2022/11/29 12:30:13;;;;;;;60.47;26.10;;;7.70;99.90;;;;;;5066721;28;20449;-68
2022/11/29 12:32:57;;;;;;;51.07;23.80;;;7.70;99.90;;;;;;5067753;28;20476;-67
2022/11/29 12:35:46;;;;;;;53.07;25.10;;;7.70;99.90;;;;;;5067790;28;20852;-69
2022/11/29 12:38:26;;;;;;;56.53;27.90;;;7.70;99.90;;;;;;5067669;28;20564;-67
2022/11/29 12:41:02;;;;;;;63.50;27.10;;;7.80;99.90;;;;;;5067093;28;21753;-67
2022/11/29 12:43:40;;;;;;;61.07;25.63;;;7.70;99.90;;;;;;5064446;28;21219;-66
2022/11/29 12:46:13;;;;;;;53.83;25.60;;;7.70;99.90;;;;;;5065659;28;20459;-67
2022/11/29 12:48:49;;;;;;;61.10;25.40;;;7.70;99.90;;;;;;5066738;28;20997;-66
2022/11/29 12:51:26;;;;;;;55.57;25.77;;;7.70;99.90;;;;;;5067281;28;20456;-66
2022/11/29 12:54:23;;;;;;;50.63;23.77;;;7.70;99.90;;;;;;5066721;28;20482;-67
2022/11/29 12:56:59;;;;;;;56.77;26.07;;;7.60;99.90;;;;;;5066337;28;20473;-67
2022/11/29 12:59:40;;;;;;;58.87;27.93;;;7.60;99.90;;;;;;5066880;28;20459;-67
2022/11/29 13:02:34;;;;;;;58.37;25.60;;;7.60;99.90;;;;;;5067029;28;20452;-67
2022/11/29 13:05:09;;;;;;;66.70;27.00;;;7.60;99.90;;;;;;5067120;28;21025;-67
2022/11/29 13:07:48;;;;;;;68.20;30.67;;;7.60;99.90;;;;;;5066423;28;20481;-67
2022/11/29 13:10:31;;;;;;;65.53;29.13;;;7.60;99.90;;;;;;5069466;28;20466;-67
2022/11/29 13:13:02;;;;;;;67.27;27.90;;;7.70;99.90;;;;;;5070049;28;20559;-67
2022/11/29 13:15:39;;;;;;;69.43;27.43;;;7.70;99.90;;;;;;5070920;28;20992;-66
2022/11/29 13:18:14;;;;;;;76.00;26.73;;;7.80;99.90;;;;;;5070903;28;20483;-65
2022/11/29 13:20:45;;;;;;;76.77;27.70;;;7.80;99.90;;;;;;5070986;28;20444;-66